createdAt,value
2023-05-08T00:01:53.789Z,95923.16
2023-05-08T00:04:20.334Z,95920.50
2023-05-08T00:06:47.599Z,95922.13
2023-05-08T00:09:14.048Z,95927.84
2023-05-08T00:11:40.513Z,95923.16
2023-05-08T00:14:07.035Z,95930.13
2023-05-08T00:16:33.607Z,95920.09
2023-05-08T00:19:00.180Z,95926.84
2023-05-08T00:21:26.884Z,95924.78
2023-05-08T00:23:53.386Z,95920.69
2023-05-08T00:26:19.940Z,95934.22
2023-05-08T00:28:46.410Z,95925.81
2023-05-08T00:31:13.003Z,95921.94
2023-05-08T00:33:39.695Z,95927.25
2023-05-08T00:36:07.286Z,95926.22
2023-05-08T00:38:36.099Z,95929.31
2023-05-08T00:41:03.388Z,95928.91
2023-05-08T00:43:29.888Z,95934.63
2023-05-08T00:46:00.787Z,95928.94
2023-05-08T00:48:33.875Z,95930.16
2023-05-08T00:51:04.397Z,95929.75
2023-05-08T00:53:35.736Z,95924.84
2023-05-08T00:56:02.375Z,95924.00
2023-05-08T00:58:31.125Z,95924.84
2023-05-08T01:00:58.006Z,95936.72
2023-05-08T01:03:25.703Z,95924.81
2023-05-08T01:05:52.444Z,95926.47
2023-05-08T01:08:18.953Z,95927.25
2023-05-08T01:11:17.233Z,95926.06
2023-05-08T01:13:50.770Z,95928.28
2023-05-08T01:16:49.992Z,95927.25
2023-05-08T01:19:19.068Z,95935.88
2023-05-08T01:21:53.110Z,95940.16
2023-05-08T01:25:01.227Z,95935.47
2023-05-08T01:28:15.333Z,95934.63
2023-05-08T01:31:13.926Z,95933.00
2023-05-08T01:33:43.223Z,95938.31
2023-05-08T01:36:23.321Z,95941.00
2023-05-08T01:39:09.833Z,95938.31
2023-05-08T01:41:39.391Z,95935.25
2023-05-08T01:44:17.954Z,95932.41
2023-05-08T01:46:49.898Z,95943.25
2023-05-08T01:49:25.479Z,95935.25
2023-05-08T01:52:05.589Z,95930.56
2023-05-08T01:54:40.916Z,95929.34
2023-05-08T01:57:11.343Z,95928.94
2023-05-08T01:59:41.339Z,95925.66
2023-05-08T02:02:10.894Z,95924.44
2023-05-08T02:04:39.650Z,95927.53
2023-05-08T02:07:07.543Z,95930.59
2023-05-08T02:09:35.197Z,95929.34
2023-05-08T02:12:04.466Z,95926.50
2023-05-08T02:14:36.020Z,95917.47
2023-05-08T02:17:05.932Z,95925.88
2023-05-08T02:19:36.348Z,95919.31
2023-05-08T02:22:03.940Z,95921.78
2023-05-08T02:24:32.608Z,95914.63
2023-05-08T02:27:00.617Z,95922.41
2023-05-08T02:29:29.219Z,95925.66
2023-05-08T02:31:58.231Z,95922.22
2023-05-08T02:34:27.164Z,95925.69
2023-05-08T02:36:55.418Z,95925.69
2023-05-08T02:39:26.349Z,95923.03
2023-05-08T02:41:53.261Z,95923.88
2023-05-08T02:44:19.829Z,95927.56
2023-05-08T02:46:55.906Z,95926.53
2023-05-08T02:49:36.509Z,95917.09
2023-05-08T02:52:13.830Z,95920.38
2023-05-08T02:55:02.701Z,95921.00
2023-05-08T02:57:50.600Z,95915.44
2023-05-08T03:00:22.858Z,95923.66
2023-05-08T03:02:59.852Z,95929.38
2023-05-08T03:05:31.456Z,95929.59
2023-05-08T03:08:05.519Z,95926.09
2023-05-08T03:10:35.117Z,95929.38
2023-05-08T03:13:07.412Z,95930.38
2023-05-08T03:15:41.652Z,95918.31
2023-05-08T03:18:14.749Z,95921.78
2023-05-08T03:20:46.371Z,95920.97
2023-05-08T03:23:15.921Z,95920.78
2023-05-08T03:25:43.974Z,95918.31
2023-05-08T03:28:11.264Z,95927.56
2023-05-08T03:30:41.329Z,95921.00
2023-05-08T03:33:09.172Z,95916.47
2023-05-08T03:35:39.774Z,95915.06
2023-05-08T03:38:08.150Z,95910.56
2023-05-08T03:40:35.990Z,95909.09
2023-05-08T03:43:02.824Z,95903.16
2023-05-08T03:45:34.664Z,95911.34
2023-05-08T03:48:01.954Z,95907.66
2023-05-08T03:50:29.369Z,95899.91
2023-05-08T03:52:58.581Z,95905.22
2023-05-08T03:55:25.708Z,95910.13
2023-05-08T03:58:17.521Z,95905.22
2023-05-08T04:01:07.677Z,95904.78
2023-05-08T04:03:49.961Z,95905.22
2023-05-08T04:06:32.974Z,95916.28
2023-05-08T04:09:14.174Z,95913.78
2023-05-08T04:11:45.602Z,95914.22
2023-05-08T04:14:19.093Z,95919.56
2023-05-08T04:16:52.003Z,95922.41
2023-05-08T04:19:24.400Z,95922.63
2023-05-08T04:21:54.502Z,95917.09
2023-05-08T04:24:24.939Z,95918.72
2023-05-08T04:26:52.779Z,95926.09
2023-05-08T04:29:20.245Z,95925.69
2023-05-08T04:31:47.019Z,95921.78
2023-05-08T04:34:14.797Z,95926.94
2023-05-08T04:36:41.334Z,95926.53
2023-05-08T04:39:07.801Z,95927.94
2023-05-08T04:41:34.323Z,95928.97
2023-05-08T04:44:02.580Z,95933.91
2023-05-08T04:46:29.197Z,95930.19
2023-05-08T04:48:55.734Z,95931.41
2023-05-08T04:51:24.423Z,95924.88
2023-05-08T04:53:50.885Z,95931.63
2023-05-08T04:56:17.358Z,95930.19
2023-05-08T04:58:43.825Z,95938.81
2023-05-08T05:01:10.317Z,95922.59
2023-05-08T05:03:36.840Z,95933.03
2023-05-08T05:06:03.397Z,95933.03
2023-05-08T05:08:29.900Z,95934.88
2023-05-08T05:10:56.383Z,95931.41
2023-05-08T05:13:22.989Z,95942.88
2023-05-08T05:15:49.549Z,95937.53
2023-05-08T05:18:16.040Z,95927.09
2023-05-08T05:20:44.684Z,95937.91
2023-05-08T05:23:12.094Z,95933.84
2023-05-08T05:25:38.854Z,95937.53
2023-05-08T05:28:05.532Z,95941.41
2023-05-08T05:30:32.057Z,95943.66
2023-05-08T05:32:58.612Z,95943.66
2023-05-08T05:35:25.775Z,95945.91
2023-05-08T05:37:52.364Z,95946.94
2023-05-08T05:40:18.964Z,95950.22
2023-05-08T05:42:49.350Z,95952.88
2023-05-08T05:45:15.902Z,95948.56
2023-05-08T05:47:46.737Z,95951.88
2023-05-08T05:50:13.451Z,95956.41
2023-05-08T05:52:40.113Z,95955.19
2023-05-08T05:55:06.954Z,95957.22
2023-05-08T05:57:33.534Z,95952.69
2023-05-08T06:00:00.247Z,95959.25
2023-05-08T06:02:26.926Z,95956.41
2023-05-08T06:04:53.550Z,95957.59
2023-05-08T06:07:20.049Z,95964.19
2023-05-08T06:09:47.631Z,95962.94
2023-05-08T06:12:14.222Z,95959.66
2023-05-08T06:14:40.699Z,95975.06
2023-05-08T06:17:07.271Z,95970.94
2023-05-08T06:19:33.893Z,95969.66
2023-05-08T06:22:00.426Z,95982.28
2023-05-08T06:24:26.998Z,95983.72
2023-05-08T06:26:53.536Z,95979.94
2023-05-08T06:29:20.048Z,95989.94
2023-05-08T06:31:46.531Z,95988.09
2023-05-08T06:34:13.109Z,95979.63
2023-05-08T06:36:39.584Z,95987.72
2023-05-08T06:39:06.365Z,95979.13
2023-05-08T06:41:32.852Z,95974.00
2023-05-08T06:43:59.328Z,95985.38
2023-05-08T06:46:25.951Z,95978.63
2023-05-08T06:48:52.457Z,95980.78
2023-05-08T06:51:18.941Z,95975.91
2023-05-08T06:53:45.428Z,95966.78
2023-05-08T06:56:11.924Z,95981.91
2023-05-08T06:58:38.403Z,95970.81
2023-05-08T07:01:04.928Z,95970.50
2023-05-08T07:03:31.434Z,95973.25
2023-05-08T07:05:58.026Z,95973.50
2023-05-08T07:08:24.539Z,95974.72
2023-05-08T07:10:51.044Z,95970.72
2023-05-08T07:13:17.631Z,95973.59
2023-05-08T07:15:44.267Z,95972.78
2023-05-08T07:18:10.905Z,95966.63
2023-05-08T07:20:37.536Z,95974.22
2023-05-08T07:23:06.787Z,95977.69
2023-05-08T07:25:33.263Z,95969.84
2023-05-08T07:28:01.297Z,95971.44
2023-05-08T07:30:28.228Z,95978.41
2023-05-08T07:32:54.954Z,95978.75
2023-05-08T07:35:21.763Z,95978.34
2023-05-08T07:37:48.363Z,95979.31
2023-05-08T07:40:14.845Z,95976.78
2023-05-08T07:42:43.297Z,95971.66
2023-05-08T07:45:12.077Z,95970.41
2023-05-08T07:47:39.623Z,95964.41
2023-05-08T07:50:06.759Z,95979.31
2023-05-08T07:52:33.239Z,95971.38
2023-05-08T07:54:59.734Z,95970.31
2023-05-08T07:57:26.313Z,95969.25
2023-05-08T07:59:52.938Z,95969.28
2023-05-08T08:02:19.542Z,95967.13
2023-05-08T08:04:46.121Z,95974.06
2023-05-08T08:07:12.649Z,95969.06
2023-05-08T08:09:39.290Z,95973.25
2023-05-08T08:12:05.891Z,95980.56
2023-05-08T08:14:32.472Z,95978.84
2023-05-08T08:16:59.222Z,95971.81
2023-05-08T08:19:25.835Z,95972.34
2023-05-08T08:21:52.293Z,95973.50
2023-05-08T08:24:18.822Z,95963.94
2023-05-08T08:26:45.585Z,95961.44
2023-05-08T08:29:12.096Z,95965.47
2023-05-08T08:31:38.705Z,95965.47
2023-05-08T08:34:07.267Z,95963.84
2023-05-08T08:36:33.839Z,95963.19
2023-05-08T08:39:00.361Z,95952.78
2023-05-08T08:41:26.837Z,95958.00
2023-05-08T08:43:54.448Z,95956.75
2023-05-08T08:46:25.191Z,95948.72
2023-05-08T08:48:56.449Z,95954.69
2023-05-08T08:51:42.780Z,95950.09
2023-05-08T08:54:12.734Z,95947.66
2023-05-08T08:56:41.623Z,95950.09
2023-05-08T08:59:09.138Z,95954.91
2023-05-08T09:01:39.576Z,95964.38
2023-05-08T09:04:06.480Z,95959.59
2023-05-08T09:06:38.297Z,95959.75
2023-05-08T09:09:05.227Z,95948.22
2023-05-08T09:11:31.762Z,95959.16
2023-05-08T09:14:01.769Z,95960.97
2023-05-08T09:16:28.518Z,95955.72
2023-05-08T09:18:55.158Z,95956.97
2023-05-08T09:21:21.752Z,95954.63
2023-05-08T09:23:56.100Z,95963.28
2023-05-08T09:26:40.623Z,95956.81
2023-05-08T09:29:16.633Z,95963.56
2023-05-08T09:31:45.806Z,95957.63
2023-05-08T09:34:24.054Z,95948.75
2023-05-08T09:36:50.637Z,95958.38
2023-05-08T09:39:23.394Z,95955.41
2023-05-08T09:42:01.056Z,95963.19
2023-05-08T09:44:28.344Z,95964.28
2023-05-08T09:47:24.977Z,95973.34
2023-05-08T09:50:09.956Z,95969.56
2023-05-08T09:52:38.809Z,95974.09
2023-05-08T09:55:08.655Z,95975.22
2023-05-08T09:57:56.602Z,95972.63
2023-05-08T10:00:25.520Z,95969.09
2023-05-08T10:03:03.668Z,95965.28
2023-05-08T10:05:32.842Z,95981.00
2023-05-08T10:08:21.874Z,95973.31
2023-05-08T10:10:49.273Z,95971.41
2023-05-08T10:13:16.033Z,95978.69
2023-05-08T10:15:44.340Z,95972.13
2023-05-08T10:18:11.948Z,95978.44
2023-05-08T10:20:42.950Z,95968.19
2023-05-08T10:23:15.237Z,95972.00
2023-05-08T10:25:55.619Z,95978.34
2023-05-08T10:28:36.778Z,95967.44
2023-05-08T10:31:07.634Z,95971.50
2023-05-08T10:33:35.237Z,95963.72
2023-05-08T10:36:01.782Z,95977.41
2023-05-08T10:38:30.356Z,95969.38
2023-05-08T10:41:00.622Z,95963.72
2023-05-08T10:43:29.522Z,95957.56
2023-05-08T10:45:58.730Z,95967.09
2023-05-08T10:48:43.516Z,95965.28
2023-05-08T10:51:39.369Z,95955.28
2023-05-08T10:54:15.156Z,95964.44
2023-05-08T10:56:41.672Z,95957.75
2023-05-08T10:59:20.767Z,95958.50
2023-05-08T11:01:48.448Z,95954.78
2023-05-08T11:04:23.175Z,95951.41
2023-05-08T11:06:50.785Z,95953.25
2023-05-08T11:09:29.022Z,95947.41
2023-05-08T11:12:20.173Z,95950.22
2023-05-08T11:14:57.497Z,95946.97
2023-05-08T11:17:25.264Z,95946.50
2023-05-08T11:19:57.215Z,95950.22
2023-05-08T11:22:26.746Z,95942.41
2023-05-08T11:25:09.354Z,95937.94
2023-05-08T11:27:50.860Z,95942.41
2023-05-08T11:30:35.080Z,95943.22
2023-05-08T11:33:04.806Z,95934.56
2023-05-08T11:35:58.666Z,95938.91
2023-05-08T11:38:34.140Z,95937.06
2023-05-08T11:41:20.684Z,95931.34
2023-05-08T11:44:02.465Z,95941.00
2023-05-08T11:46:41.628Z,95932.50
2023-05-08T11:49:16.326Z,95936.22
2023-05-08T11:51:46.939Z,95925.03
2023-05-08T11:54:16.570Z,95934.25
2023-05-08T11:56:47.622Z,95925.63
2023-05-08T11:59:15.914Z,95929.09
2023-05-08T12:01:46.330Z,95925.16
2023-05-08T12:04:15.620Z,95927.78
2023-05-08T12:06:42.627Z,95921.34
2023-05-08T12:09:15.093Z,95924.41
2023-05-08T12:11:43.428Z,95925.09
2023-05-08T12:14:11.445Z,95920.09
2023-05-08T12:16:39.028Z,95925.47
2023-05-08T12:19:13.220Z,95925.69
2023-05-08T12:21:46.519Z,95920.59
2023-05-08T12:24:13.351Z,95922.22
2023-05-08T12:26:39.913Z,95919.78
2023-05-08T12:29:07.024Z,95916.19
2023-05-08T12:31:35.672Z,95925.97
2023-05-08T12:34:06.327Z,95925.28
2023-05-08T12:36:36.771Z,95929.75
2023-05-08T12:39:17.444Z,95920.63
2023-05-08T12:41:53.051Z,95919.25
2023-05-08T12:44:25.058Z,95919.72
2023-05-08T12:46:56.176Z,95924.34
2023-05-08T12:49:27.880Z,95928.53
2023-05-08T12:52:02.525Z,95924.94
2023-05-08T12:54:48.695Z,95931.69
2023-05-08T12:57:17.841Z,95926.56
2023-05-08T12:59:46.723Z,95934.41
2023-05-08T13:02:22.037Z,95932.63
2023-05-08T13:04:54.761Z,95938.38
2023-05-08T13:07:21.922Z,95935.66
2023-05-08T13:09:59.008Z,95934.03
2023-05-08T13:12:25.578Z,95934.88
2023-05-08T13:14:52.143Z,95933.19
2023-05-08T13:17:19.157Z,95926.41
2023-05-08T13:19:45.695Z,95919.56
2023-05-08T13:22:12.289Z,95917.91
2023-05-08T13:24:38.789Z,95921.72
2023-05-08T13:27:05.337Z,95919.22
2023-05-08T13:29:31.962Z,95912.59
2023-05-08T13:31:58.597Z,95908.25
2023-05-08T13:34:25.186Z,95904.81
2023-05-08T13:36:51.830Z,95898.91
2023-05-08T13:39:18.517Z,95902.72
2023-05-08T13:41:45.632Z,95897.91
2023-05-08T13:44:12.204Z,95900.03
2023-05-08T13:46:38.701Z,95889.50
2023-05-08T13:49:05.246Z,95895.34
2023-05-08T13:51:31.819Z,95895.09
2023-05-08T13:53:58.319Z,95892.56
2023-05-08T13:56:24.942Z,95894.06
2023-05-08T13:58:52.554Z,95893.72
2023-05-08T14:01:26.260Z,95886.97
2023-05-08T14:03:54.934Z,95884.72
2023-05-08T14:06:21.987Z,95877.94
2023-05-08T14:08:51.507Z,95878.84
2023-05-08T14:11:19.420Z,95872.38
2023-05-08T14:13:45.904Z,95865.59
2023-05-08T14:16:14.392Z,95860.56
2023-05-08T14:18:41.076Z,95863.25
2023-05-08T14:21:07.572Z,95857.41
2023-05-08T14:23:36.277Z,95849.56
2023-05-08T14:26:02.925Z,95858.25
2023-05-08T14:28:29.441Z,95846.16
2023-05-08T14:30:56.176Z,95849.56
2023-05-08T14:33:22.927Z,95857.25
2023-05-08T14:35:49.508Z,95852.81
2023-05-08T14:38:16.298Z,95848.22
2023-05-08T14:40:42.792Z,95844.53
2023-05-08T14:43:09.327Z,95851.53
2023-05-08T14:45:35.943Z,95858.03
2023-05-08T14:48:02.578Z,95843.38
2023-05-08T14:50:29.460Z,95841.28
2023-05-08T14:52:56.110Z,95841.13
2023-05-08T14:55:23.056Z,95844.03
2023-05-08T14:57:50.320Z,95841.75
2023-05-08T15:00:18.091Z,95839.56
2023-05-08T15:02:45.097Z,95836.41
2023-05-08T15:05:19.189Z,95840.34
2023-05-08T15:07:46.997Z,95841.28
2023-05-08T15:10:13.748Z,95831.09
2023-05-08T15:12:40.654Z,95829.19
2023-05-08T15:15:07.827Z,95831.88
2023-05-08T15:17:34.741Z,95840.06
2023-05-08T15:20:01.366Z,95840.81
2023-05-08T15:22:28.409Z,95839.38
2023-05-08T15:24:55.121Z,95839.75
2023-05-08T15:27:21.847Z,95842.06
2023-05-08T15:29:48.724Z,95850.44
2023-05-08T15:32:15.427Z,95856.91
2023-05-08T15:34:42.128Z,95866.03
2023-05-08T15:37:08.675Z,95855.25
2023-05-08T15:39:36.102Z,95857.84
2023-05-08T15:42:02.913Z,95853.25
2023-05-08T15:44:42.140Z,95859.16
2023-05-08T15:47:16.063Z,95863.56
2023-05-08T15:49:42.601Z,95865.41
2023-05-08T15:52:09.280Z,95861.00
2023-05-08T15:54:35.793Z,95858.38
2023-05-08T15:57:02.290Z,95860.56
2023-05-08T15:59:28.805Z,95864.91
2023-05-08T16:01:55.431Z,95859.00
2023-05-08T16:04:24.955Z,95865.84
2023-05-08T16:06:51.531Z,95865.50
2023-05-08T16:09:18.058Z,95868.78
2023-05-08T16:11:47.077Z,95870.47
2023-05-08T16:14:14.230Z,95863.53
2023-05-08T16:16:40.725Z,95870.13
2023-05-08T16:19:07.206Z,95870.91
2023-05-08T16:21:33.718Z,95877.16
2023-05-08T16:24:00.234Z,95874.38
2023-05-08T16:26:26.742Z,95873.00
2023-05-08T16:28:53.326Z,95876.25
2023-05-08T16:31:19.926Z,95872.31
2023-05-08T16:33:46.468Z,95880.28
2023-05-08T16:36:13.088Z,95879.50
2023-05-08T16:38:39.627Z,95869.19
2023-05-08T16:41:07.442Z,95875.25
2023-05-08T16:43:33.944Z,95884.75
2023-05-08T16:46:00.537Z,95889.06
2023-05-08T16:48:27.176Z,95891.56
2023-05-08T16:50:53.706Z,95898.59
2023-05-08T16:53:20.197Z,95887.22
2023-05-08T16:55:46.713Z,95889.16
2023-05-08T16:58:13.249Z,95889.94
2023-05-08T17:00:39.743Z,95884.56
2023-05-08T17:03:06.397Z,95893.38
2023-05-08T17:05:33.050Z,95897.69
2023-05-08T17:07:59.556Z,95896.63
2023-05-08T17:10:26.126Z,95904.91
2023-05-08T17:12:54.125Z,95902.50
2023-05-08T17:15:20.905Z,95908.66
2023-05-08T17:17:47.597Z,95908.38
2023-05-08T17:20:14.685Z,95907.94
2023-05-08T17:22:42.007Z,95909.94
2023-05-08T17:25:08.676Z,95907.84
2023-05-08T17:27:35.328Z,95908.75
2023-05-08T17:30:03.244Z,95906.56
2023-05-08T17:32:29.802Z,95907.78
2023-05-08T17:34:56.327Z,95911.97
2023-05-08T17:37:22.938Z,95911.97
2023-05-08T17:39:49.524Z,95925.31
2023-05-08T17:42:16.021Z,95931.22
2023-05-08T17:44:42.515Z,95931.81
2023-05-08T17:47:09.029Z,95918.19
2023-05-08T17:49:35.583Z,95921.53
2023-05-08T17:52:02.078Z,95915.97
2023-05-08T17:54:28.604Z,95916.25
2023-05-08T17:56:55.095Z,95915.44
2023-05-08T17:59:21.607Z,95923.75
2023-05-08T18:01:48.176Z,95923.59
2023-05-08T18:04:14.676Z,95925.13
2023-05-08T18:06:42.646Z,95922.84
2023-05-08T18:09:09.179Z,95925.75
2023-05-08T18:11:35.833Z,95932.56
2023-05-08T18:14:02.326Z,95929.97
2023-05-08T18:16:29.050Z,95929.13
2023-05-08T18:18:55.737Z,95936.34
2023-05-08T18:21:22.277Z,95936.16
2023-05-08T18:23:50.131Z,95939.06
2023-05-08T18:26:17.176Z,95931.41
2023-05-08T18:28:43.922Z,95934.75
2023-05-08T18:31:10.904Z,95927.94
2023-05-08T18:33:37.447Z,95933.00
2023-05-08T18:36:04.111Z,95923.69
2023-05-08T18:38:32.588Z,95936.13
2023-05-08T18:41:04.486Z,95934.69
2023-05-08T18:43:30.970Z,95925.78
2023-05-08T18:45:57.590Z,95931.00
2023-05-08T18:48:25.794Z,95931.25
2023-05-08T18:50:52.315Z,95928.09
2023-05-08T18:53:19.448Z,95926.22
2023-05-08T18:55:45.912Z,95925.06
2023-05-08T18:58:12.605Z,95927.00
2023-05-08T19:00:39.260Z,95931.41
2023-05-08T19:03:05.873Z,95924.69
2023-05-08T19:05:32.537Z,95925.69
2023-05-08T19:07:59.102Z,95922.59
2023-05-08T19:10:25.567Z,95923.59
2023-05-08T19:12:52.101Z,95925.03
2023-05-08T19:15:18.723Z,95915.09
2023-05-08T19:17:45.335Z,95916.97
2023-05-08T19:20:12.771Z,95923.81
2023-05-08T19:22:39.457Z,95925.84
2023-05-08T19:25:06.314Z,95923.34
2023-05-08T19:27:32.807Z,95922.75
2023-05-08T19:29:59.303Z,95922.41
2023-05-08T19:32:25.973Z,95928.16
2023-05-08T19:34:52.452Z,95930.59
2023-05-08T19:37:19.064Z,95935.88
2023-05-08T19:39:45.537Z,95931.53
2023-05-08T19:42:12.016Z,95942.91
2023-05-08T19:44:38.695Z,95932.66
2023-05-08T19:47:05.237Z,95945.03
2023-05-08T19:49:31.730Z,95946.88
2023-05-08T19:51:58.234Z,95946.41
2023-05-08T19:54:24.946Z,95954.25
2023-05-08T19:56:51.438Z,95950.19
2023-05-08T19:59:17.942Z,95964.53
2023-05-08T20:01:44.494Z,95959.25
2023-05-08T20:04:11.083Z,95959.25
2023-05-08T20:06:37.681Z,95966.00
2023-05-08T20:09:04.454Z,95966.25
2023-05-08T20:11:31.054Z,95965.22
2023-05-08T20:13:57.686Z,95953.53
2023-05-08T20:16:24.223Z,95955.19
2023-05-08T20:18:50.757Z,95953.53
2023-05-08T20:21:17.362Z,95947.81
2023-05-08T20:23:44.017Z,95949.00
2023-05-08T20:26:10.613Z,95955.34
2023-05-08T20:28:37.436Z,95953.50
2023-05-08T20:31:04.140Z,95953.91
2023-05-08T20:33:30.651Z,95951.41
2023-05-08T20:35:57.245Z,95956.31
2023-05-08T20:38:23.787Z,95944.78
2023-05-08T20:40:50.872Z,95943.16
2023-05-08T20:43:17.363Z,95939.41
2023-05-08T20:45:43.905Z,95936.88
2023-05-08T20:48:10.510Z,95940.78
2023-05-08T20:50:36.999Z,95938.69
2023-05-08T20:53:03.452Z,95936.78
2023-05-08T20:55:29.958Z,95934.69
2023-05-08T20:57:56.440Z,95939.84
2023-05-08T21:00:22.902Z,95939.19
2023-05-08T21:02:49.389Z,95933.91
2023-05-08T21:05:16.178Z,95931.91
2023-05-08T21:07:42.826Z,95924.75
2023-05-08T21:10:09.843Z,95930.06
2023-05-08T21:12:36.338Z,95924.69
2023-05-08T21:15:02.846Z,95922.22
2023-05-08T21:17:29.369Z,95910.34
2023-05-08T21:19:55.875Z,95909.50
2023-05-08T21:22:22.352Z,95910.34
2023-05-08T21:24:48.863Z,95915.47
2023-05-08T21:27:15.315Z,95916.09
2023-05-08T21:29:41.817Z,95920.59
2023-05-08T21:32:09.948Z,95914.16
2023-05-08T21:34:36.870Z,95918.88
2023-05-08T21:37:03.433Z,95919.84
2023-05-08T21:39:29.934Z,95918.72
2023-05-08T21:41:56.423Z,95918.03
2023-05-08T21:44:22.922Z,95920.44
2023-05-08T21:46:49.452Z,95918.03
2023-05-08T21:49:15.983Z,95915.16
2023-05-08T21:51:42.452Z,95911.91
2023-05-08T21:54:08.937Z,95904.91
2023-05-08T21:56:35.468Z,95902.63
2023-05-08T21:59:01.962Z,95906.91
2023-05-08T22:01:28.535Z,95904.53
2023-05-08T22:03:55.246Z,95905.94
2023-05-08T22:06:21.906Z,95906.66
2023-05-08T22:08:48.396Z,95911.13
2023-05-08T22:11:14.928Z,95906.16
2023-05-08T22:13:41.443Z,95903.69
2023-05-08T22:16:07.988Z,95903.69
2023-05-08T22:18:34.538Z,95900.78
2023-05-08T22:21:01.013Z,95902.38
2023-05-08T22:23:27.486Z,95897.47
2023-05-08T22:25:53.953Z,95900.75
2023-05-08T22:28:20.449Z,95897.06
2023-05-08T22:30:46.946Z,95899.94
2023-05-08T22:33:13.507Z,95894.56
2023-05-08T22:35:40.018Z,95904.22
2023-05-08T22:38:06.751Z,95899.72
2023-05-08T22:40:33.642Z,95898.66
2023-05-08T22:43:00.755Z,95890.06
2023-05-08T22:45:27.740Z,95887.41
2023-05-08T22:47:55.095Z,95895.84
2023-05-08T22:50:21.618Z,95887.72
2023-05-08T22:52:48.225Z,95888.53
2023-05-08T22:55:14.979Z,95881.13
2023-05-08T22:57:41.681Z,95873.31
2023-05-08T23:00:08.732Z,95870.88
2023-05-08T23:02:35.596Z,95863.44
2023-05-08T23:05:02.407Z,95861.59
2023-05-08T23:07:29.603Z,95867.16
2023-05-08T23:09:56.322Z,95861.00
2023-05-08T23:12:23.061Z,95867.56
2023-05-08T23:14:49.639Z,95857.31
2023-05-08T23:17:16.158Z,95853.47
2023-05-08T23:19:42.688Z,95852.22
2023-05-08T23:22:09.826Z,95858.59
2023-05-08T23:24:36.744Z,95850.41
2023-05-08T23:27:03.298Z,95843.28
2023-05-08T23:29:29.838Z,95848.00
2023-05-08T23:31:56.392Z,95843.72
2023-05-08T23:34:22.973Z,95843.94
2023-05-08T23:36:49.461Z,95832.53
2023-05-08T23:39:15.992Z,95830.16
2023-05-08T23:41:42.510Z,95832.28
2023-05-08T23:44:09.007Z,95827.97
2023-05-08T23:46:35.602Z,95830.19
2023-05-08T23:49:02.123Z,95829.00
2023-05-08T23:51:28.621Z,95827.34
2023-05-08T23:53:55.099Z,95822.44
2023-05-08T23:56:21.577Z,95826.13
2023-05-08T23:58:48.151Z,95828.19
